sensor_id;sensor_type;location;lat;lon;timestamp;temperature;humidity
10889;DHT22;5497;51.388;6.780;2023-03-30T00:00:31;13.00;99.90
10889;DHT22;5497;51.388;6.780;2023-03-30T00:02:58;13.00;99.90
10889;DHT22;5497;51.388;6.780;2023-03-30T00:05:27;13.00;99.90
10889;DHT22;5497;51.388;6.780;2023-03-30T00:07:55;13.10;99.90
10889;DHT22;5497;51.388;6.780;2023-03-30T00:10:22;13.10;99.90
10889;DHT22;5497;51.388;6.780;2023-03-30T00:12:49;13.10;99.90
10889;DHT22;5497;51.388;6.780;2023-03-30T00:15:18;13.10;99.90
10889;DHT22;5497;51.388;6.780;2023-03-30T00:17:46;13.10;99.90
10889;DHT22;5497;51.388;6.780;2023-03-30T00:20:13;13.10;99.90
10889;DHT22;5497;51.388;6.780;2023-03-30T00:22:42;13.20;99.90
10889;DHT22;5497;51.388;6.780;2023-03-30T00:25:11;13.20;99.90
10889;DHT22;5497;51.388;6.780;2023-03-30T00:27:39;13.20;99.90
10889;DHT22;5497;51.388;6.780;2023-03-30T00:30:08;13.20;99.90
10889;DHT22;5497;51.388;6.780;2023-03-30T00:32:36;13.30;99.90
10889;DHT22;5497;51.388;6.780;2023-03-30T00:35:03;13.30;99.90
10889;DHT22;5497;51.388;6.780;2023-03-30T00:37:31;13.30;99.90
10889;DHT22;5497;51.388;6.780;2023-03-30T00:40:02;13.30;99.90
10889;DHT22;5497;51.388;6.780;2023-03-30T00:42:34;13.30;99.90
10889;DHT22;5497;51.388;6.780;2023-03-30T00:45:08;13.30;99.90
10889;DHT22;5497;51.388;6.780;2023-03-30T00:47:36;13.20;99.90
10889;DHT22;5497;51.388;6.780;2023-03-30T00:50:04;13.20;99.90
10889;DHT22;5497;51.388;6.780;2023-03-30T00:52:32;13.20;99.90
10889;DHT22;5497;51.388;6.780;2023-03-30T00:55:02;13.20;99.90
10889;DHT22;5497;51.388;6.780;2023-03-30T00:57:30;13.20;99.90
10889;DHT22;5497;51.388;6.780;2023-03-30T01:00:00;13.20;99.90
10889;DHT22;5497;51.388;6.780;2023-03-30T01:02:32;13.20;99.90
10889;DHT22;5497;51.388;6.780;2023-03-30T01:05:00;13.10;99.90
10889;DHT22;5497;51.388;6.780;2023-03-30T01:07:28;13.10;99.90
10889;DHT22;5497;51.388;6.780;2023-03-30T01:09:56;13.10;99.90
10889;DHT22;5497;51.388;6.780;2023-03-30T01:12:23;13.00;99.90
10889;DHT22;5497;51.388;6.780;2023-03-30T01:14:52;13.10;99.90
10889;DHT22;5497;51.388;6.780;2023-03-30T01:17:21;13.00;99.90
10889;DHT22;5497;51.388;6.780;2023-03-30T01:20:04;13.00;99.90
10889;DHT22;5497;51.388;6.780;2023-03-30T01:22:59;13.00;99.90
10889;DHT22;5497;51.388;6.780;2023-03-30T01:25:38;13.10;99.90
10889;DHT22;5497;51.388;6.780;2023-03-30T01:28:21;13.20;99.90
10889;DHT22;5497;51.388;6.780;2023-03-30T01:31:03;13.20;99.90
10889;DHT22;5497;51.388;6.780;2023-03-30T01:36:28;13.30;
10889;DHT22;5497;51.388;6.780;2023-03-30T01:39:11;13.40;99.90
10889;DHT22;5497;51.388;6.780;2023-03-30T01:41:41;13.40;99.90
10889;DHT22;5497;51.388;6.780;2023-03-30T01:44:14;13.40;99.90
10889;DHT22;5497;51.388;6.780;2023-03-30T01:46:43;13.40;99.90
10889;DHT22;5497;51.388;6.780;2023-03-30T01:49:13;13.40;99.90
10889;DHT22;5497;51.388;6.780;2023-03-30T01:51:43;13.50;99.90
10889;DHT22;5497;51.388;6.780;2023-03-30T01:54:15;13.50;99.90
10889;DHT22;5497;51.388;6.780;2023-03-30T01:56:45;13.50;99.90
10889;DHT22;5497;51.388;6.780;2023-03-30T01:59:13;13.50;99.90
10889;DHT22;5497;51.388;6.780;2023-03-30T02:01:44;13.60;99.90
10889;DHT22;5497;51.388;6.780;2023-03-30T02:04:15;13.60;99.90
10889;DHT22;5497;51.388;6.780;2023-03-30T02:06:43;13.60;99.90
10889;DHT22;5497;51.388;6.780;2023-03-30T02:09:13;13.70;99.90
10889;DHT22;5497;51.388;6.780;2023-03-30T02:11:42;13.70;99.90
10889;DHT22;5497;51.388;6.780;2023-03-30T02:14:11;13.70;99.90
10889;DHT22;5497;51.388;6.780;2023-03-30T02:16:44;13.80;99.90
10889;DHT22;5497;51.388;6.780;2023-03-30T02:19:13;13.80;99.90
10889;DHT22;5497;51.388;6.780;2023-03-30T02:21:41;13.80;99.90
10889;DHT22;5497;51.388;6.780;2023-03-30T02:24:11;13.90;99.90
10889;DHT22;5497;51.388;6.780;2023-03-30T02:26:44;13.90;99.90
10889;DHT22;5497;51.388;6.780;2023-03-30T02:29:11;13.90;99.90
10889;DHT22;5497;51.388;6.780;2023-03-30T02:31:39;13.90;99.90
10889;DHT22;5497;51.388;6.780;2023-03-30T02:34:12;13.90;99.90
10889;DHT22;5497;51.388;6.780;2023-03-30T02:36:48;13.90;99.90
10889;DHT22;5497;51.388;6.780;2023-03-30T02:39:23;13.90;99.90
10889;DHT22;5497;51.388;6.780;2023-03-30T02:42:06;13.90;99.90
10889;DHT22;5497;51.388;6.780;2023-03-30T02:44:37;13.90;99.90
10889;DHT22;5497;51.388;6.780;2023-03-30T02:47:07;13.90;99.90
10889;DHT22;5497;51.388;6.780;2023-03-30T02:49:37;13.80;99.90
10889;DHT22;5497;51.388;6.780;2023-03-30T02:52:07;13.80;99.90
10889;DHT22;5497;51.388;6.780;2023-03-30T02:54:44;13.80;99.90
10889;DHT22;5497;51.388;6.780;2023-03-30T02:57:21;13.70;99.90
10889;DHT22;5497;51.388;6.780;2023-03-30T02:59:53;13.60;99.90
10889;DHT22;5497;51.388;6.780;2023-03-30T03:02:23;13.50;99.90
10889;DHT22;5497;51.388;6.780;2023-03-30T03:04:59;13.40;99.90
10889;DHT22;5497;51.388;6.780;2023-03-30T03:07:54;13.40;99.90
10889;DHT22;5497;51.388;6.780;2023-03-30T03:10:22;13.40;99.90
10889;DHT22;5497;51.388;6.780;2023-03-30T03:12:50;13.40;99.90
10889;DHT22;5497;51.388;6.780;2023-03-30T03:15:19;13.40;99.90
10889;DHT22;5497;51.388;6.780;2023-03-30T03:18:05;13.40;99.90
10889;DHT22;5497;51.388;6.780;2023-03-30T03:20:34;13.40;99.90
10889;DHT22;5497;51.388;6.780;2023-03-30T03:23:02;13.50;99.90
10889;DHT22;5497;51.388;6.780;2023-03-30T03:25:36;13.50;99.90
10889;DHT22;5497;51.388;6.780;2023-03-30T03:28:10;13.60;99.90
10889;DHT22;5497;51.388;6.780;2023-03-30T03:30:47;13.60;99.90
10889;DHT22;5497;51.388;6.780;2023-03-30T03:33:16;13.70;99.90
10889;DHT22;5497;51.388;6.780;2023-03-30T03:35:51;13.80;99.90
10889;DHT22;5497;51.388;6.780;2023-03-30T03:38:20;13.80;99.90
10889;DHT22;5497;51.388;6.780;2023-03-30T03:40:48;13.80;99.90
10889;DHT22;5497;51.388;6.780;2023-03-30T03:43:17;13.90;99.90
10889;DHT22;5497;51.388;6.780;2023-03-30T03:45:44;13.90;99.90
10889;DHT22;5497;51.388;6.780;2023-03-30T03:48:11;14.00;99.90
10889;DHT22;5497;51.388;6.780;2023-03-30T03:50:48;14.00;99.90
10889;DHT22;5497;51.388;6.780;2023-03-30T03:53:15;14.00;99.90
10889;DHT22;5497;51.388;6.780;2023-03-30T03:55:46;14.10;99.90
10889;DHT22;5497;51.388;6.780;2023-03-30T03:58:14;14.10;99.90
10889;DHT22;5497;51.388;6.780;2023-03-30T04:00:43;14.10;99.90
10889;DHT22;5497;51.388;6.780;2023-03-30T04:03:10;14.10;99.90
10889;DHT22;5497;51.388;6.780;2023-03-30T04:05:38;14.10;99.90
10889;DHT22;5497;51.388;6.780;2023-03-30T04:08:05;14.10;99.90
10889;DHT22;5497;51.388;6.780;2023-03-30T04:10:35;14.10;99.90
10889;DHT22;5497;51.388;6.780;2023-03-30T04:13:14;14.20;99.90
10889;DHT22;5497;51.388;6.780;2023-03-30T04:15:48;14.20;99.90
10889;DHT22;5497;51.388;6.780;2023-03-30T04:18:35;14.30;99.90
10889;DHT22;5497;51.388;6.780;2023-03-30T04:21:23;14.30;99.90
10889;DHT22;5497;51.388;6.780;2023-03-30T04:24:12;14.30;99.90
10889;DHT22;5497;51.388;6.780;2023-03-30T04:26:57;14.40;99.90
10889;DHT22;5497;51.388;6.780;2023-03-30T04:29:27;14.40;99.90
10889;DHT22;5497;51.388;6.780;2023-03-30T04:32:21;14.40;99.90
10889;DHT22;5497;51.388;6.780;2023-03-30T04:34:56;14.40;99.90
10889;DHT22;5497;51.388;6.780;2023-03-30T04:37:23;14.40;99.90
10889;DHT22;5497;51.388;6.780;2023-03-30T04:40:13;14.40;99.90
10889;DHT22;5497;51.388;6.780;2023-03-30T04:43:02;14.40;99.90
10889;DHT22;5497;51.388;6.780;2023-03-30T04:45:46;14.40;99.90
10889;DHT22;5497;51.388;6.780;2023-03-30T04:48:33;14.40;99.90
10889;DHT22;5497;51.388;6.780;2023-03-30T04:51:15;14.30;99.90
10889;DHT22;5497;51.388;6.780;2023-03-30T04:54:05;14.30;99.90
10889;DHT22;5497;51.388;6.780;2023-03-30T04:56:51;14.30;99.90
10889;DHT22;5497;51.388;6.780;2023-03-30T04:59:18;14.30;99.90
10889;DHT22;5497;51.388;6.780;2023-03-30T05:01:57;14.30;99.90
10889;DHT22;5497;51.388;6.780;2023-03-30T05:04:48;14.20;99.90
10889;DHT22;5497;51.388;6.780;2023-03-30T05:07:18;14.20;99.90
10889;DHT22;5497;51.388;6.780;2023-03-30T05:10:01;14.20;99.90
10889;DHT22;5497;51.388;6.780;2023-03-30T05:12:52;14.20;99.90
10889;DHT22;5497;51.388;6.780;2023-03-30T05:15:39;14.20;99.90
10889;DHT22;5497;51.388;6.780;2023-03-30T05:18:09;14.20;99.90
10889;DHT22;5497;51.388;6.780;2023-03-30T05:20:56;14.20;99.90
10889;DHT22;5497;51.388;6.780;2023-03-30T05:23:42;14.10;99.90
10889;DHT22;5497;51.388;6.780;2023-03-30T05:26:28;14.10;99.90
10889;DHT22;5497;51.388;6.780;2023-03-30T05:29:14;14.10;99.90
10889;DHT22;5497;51.388;6.780;2023-03-30T05:32:00;14.10;99.90
10889;DHT22;5497;51.388;6.780;2023-03-30T05:34:43;14.20;99.90
10889;DHT22;5497;51.388;6.780;2023-03-30T05:37:31;14.20;99.90
10889;DHT22;5497;51.388;6.780;2023-03-30T05:40:16;14.20;99.90
10889;DHT22;5497;51.388;6.780;2023-03-30T05:43:16;14.30;99.90
10889;DHT22;5497;51.388;6.780;2023-03-30T05:46:01;14.30;99.90
10889;DHT22;5497;51.388;6.780;2023-03-30T05:48:49;14.30;99.90
10889;DHT22;5497;51.388;6.780;2023-03-30T05:51:39;14.40;99.90
10889;DHT22;5497;51.388;6.780;2023-03-30T05:54:27;14.80;99.90
10889;DHT22;5497;51.388;6.780;2023-03-30T05:57:06;14.50;99.90
10889;DHT22;5497;51.388;6.780;2023-03-30T05:59:55;14.40;99.90
10889;DHT22;5497;51.388;6.780;2023-03-30T06:02:40;14.50;99.90
10889;DHT22;5497;51.388;6.780;2023-03-30T06:05:12;14.50;99.90
10889;DHT22;5497;51.388;6.780;2023-03-30T06:07:41;14.60;99.90
10889;DHT22;5497;51.388;6.780;2023-03-30T06:10:11;14.70;99.90
10889;DHT22;5497;51.388;6.780;2023-03-30T06:12:39;14.70;99.90
10889;DHT22;5497;51.388;6.780;2023-03-30T06:15:14;14.80;99.90
10889;DHT22;5497;51.388;6.780;2023-03-30T06:17:47;14.90;99.90
10889;DHT22;5497;51.388;6.780;2023-03-30T06:20:14;14.90;99.90
10889;DHT22;5497;51.388;6.780;2023-03-30T06:22:44;15.00;99.90
10889;DHT22;5497;51.388;6.780;2023-03-30T06:25:17;15.00;99.90
10889;DHT22;5497;51.388;6.780;2023-03-30T06:27:45;15.00;99.90
10889;DHT22;5497;51.388;6.780;2023-03-30T06:30:13;15.00;99.90
10889;DHT22;5497;51.388;6.780;2023-03-30T06:32:43;15.10;99.90
10889;DHT22;5497;51.388;6.780;2023-03-30T06:35:24;15.10;99.90
10889;DHT22;5497;51.388;6.780;2023-03-30T06:37:52;15.10;99.90
10889;DHT22;5497;51.388;6.780;2023-03-30T06:40:20;15.10;99.90
10889;DHT22;5497;51.388;6.780;2023-03-30T06:42:50;15.10;99.90
10889;DHT22;5497;51.388;6.780;2023-03-30T06:45:26;15.20;99.90
10889;DHT22;5497;51.388;6.780;2023-03-30T06:47:53;15.20;99.90
10889;DHT22;5497;51.388;6.780;2023-03-30T06:50:21;15.30;99.90
10889;DHT22;5497;51.388;6.780;2023-03-30T06:52:51;15.30;99.90
10889;DHT22;5497;51.388;6.780;2023-03-30T06:55:21;15.30;99.90
10889;DHT22;5497;51.388;6.780;2023-03-30T06:57:48;15.30;99.90
10889;DHT22;5497;51.388;6.780;2023-03-30T07:00:17;15.30;99.90
10889;DHT22;5497;51.388;6.780;2023-03-30T07:03:04;15.40;99.90
10889;DHT22;5497;51.388;6.780;2023-03-30T07:05:36;15.50;99.90
10889;DHT22;5497;51.388;6.780;2023-03-30T07:08:11;15.60;99.90
10889;DHT22;5497;51.388;6.780;2023-03-30T07:10:46;15.70;99.90
10889;DHT22;5497;51.388;6.780;2023-03-30T07:13:13;15.80;99.90
10889;DHT22;5497;51.388;6.780;2023-03-30T07:15:42;16.00;99.90
10889;DHT22;5497;51.388;6.780;2023-03-30T07:18:09;16.10;99.90
10889;DHT22;5497;51.388;6.780;2023-03-30T07:20:36;16.10;99.90
10889;DHT22;5497;51.388;6.780;2023-03-30T07:23:18;16.20;99.90
10889;DHT22;5497;51.388;6.780;2023-03-30T07:25:49;16.20;99.90
10889;DHT22;5497;51.388;6.780;2023-03-30T07:28:30;16.20;99.90
10889;DHT22;5497;51.388;6.780;2023-03-30T07:31:02;16.10;99.90
10889;DHT22;5497;51.388;6.780;2023-03-30T07:33:30;16.10;99.90
10889;DHT22;5497;51.388;6.780;2023-03-30T07:36:00;16.10;99.90
10889;DHT22;5497;51.388;6.780;2023-03-30T07:38:28;16.00;99.90
10889;DHT22;5497;51.388;6.780;2023-03-30T07:40:57;15.80;99.90
10889;DHT22;5497;51.388;6.780;2023-03-30T07:43:25;15.70;99.90
10889;DHT22;5497;51.388;6.780;2023-03-30T07:45:54;15.50;99.90
10889;DHT22;5497;51.388;6.780;2023-03-30T07:48:29;15.30;99.90
10889;DHT22;5497;51.388;6.780;2023-03-30T07:51:00;15.10;99.90
10889;DHT22;5497;51.388;6.780;2023-03-30T07:53:28;15.10;99.90
10889;DHT22;5497;51.388;6.780;2023-03-30T07:55:58;15.10;99.90
10889;DHT22;5497;51.388;6.780;2023-03-30T07:58:34;15.20;99.90
10889;DHT22;5497;51.388;6.780;2023-03-30T08:01:01;15.30;99.90
10889;DHT22;5497;51.388;6.780;2023-03-30T08:03:35;15.40;99.90
10889;DHT22;5497;51.388;6.780;2023-03-30T08:06:05;15.70;99.90
10889;DHT22;5497;51.388;6.780;2023-03-30T08:08:37;15.90;99.90
10889;DHT22;5497;51.388;6.780;2023-03-30T08:11:09;16.00;99.90
10889;DHT22;5497;51.388;6.780;2023-03-30T08:13:39;16.10;99.90
10889;DHT22;5497;51.388;6.780;2023-03-30T08:16:06;16.10;99.90
10889;DHT22;5497;51.388;6.780;2023-03-30T08:18:34;16.30;99.90
10889;DHT22;5497;51.388;6.780;2023-03-30T08:21:02;16.40;99.90
10889;DHT22;5497;51.388;6.780;2023-03-30T08:23:29;16.50;99.90
10889;DHT22;5497;51.388;6.780;2023-03-30T08:25:56;16.50;99.90
10889;DHT22;5497;51.388;6.780;2023-03-30T08:28:24;16.50;99.90
10889;DHT22;5497;51.388;6.780;2023-03-30T08:30:51;16.60;99.90
10889;DHT22;5497;51.388;6.780;2023-03-30T08:33:19;16.60;99.90
10889;DHT22;5497;51.388;6.780;2023-03-30T08:35:48;16.80;99.90
10889;DHT22;5497;51.388;6.780;2023-03-30T08:38:15;17.00;99.90
10889;DHT22;5497;51.388;6.780;2023-03-30T08:40:43;17.20;99.90
10889;DHT22;5497;51.388;6.780;2023-03-30T08:43:17;17.20;99.90
10889;DHT22;5497;51.388;6.780;2023-03-30T08:45:49;17.30;99.90
10889;DHT22;5497;51.388;6.780;2023-03-30T08:48:18;17.70;99.90
10889;DHT22;5497;51.388;6.780;2023-03-30T08:50:46;18.20;99.90
10889;DHT22;5497;51.388;6.780;2023-03-30T08:53:16;18.70;99.90
10889;DHT22;5497;51.388;6.780;2023-03-30T08:55:44;18.80;99.90
10889;DHT22;5497;51.388;6.780;2023-03-30T08:58:12;18.90;99.90
10889;DHT22;5497;51.388;6.780;2023-03-30T09:00:41;18.70;99.90
10889;DHT22;5497;51.388;6.780;2023-03-30T09:03:15;18.60;99.90
10889;DHT22;5497;51.388;6.780;2023-03-30T09:05:44;18.40;99.90
10889;DHT22;5497;51.388;6.780;2023-03-30T09:08:15;18.40;99.90
10889;DHT22;5497;51.388;6.780;2023-03-30T09:10:45;18.50;99.90
10889;DHT22;5497;51.388;6.780;2023-03-30T09:13:14;18.60;99.90
10889;DHT22;5497;51.388;6.780;2023-03-30T09:15:42;18.50;99.90
10889;DHT22;5497;51.388;6.780;2023-03-30T09:18:14;18.60;99.90
10889;DHT22;5497;51.388;6.780;2023-03-30T09:20:42;18.10;99.90
10889;DHT22;5497;51.388;6.780;2023-03-30T09:23:11;17.90;99.90
10889;DHT22;5497;51.388;6.780;2023-03-30T09:25:40;17.60;99.90
10889;DHT22;5497;51.388;6.780;2023-03-30T09:28:11;17.20;99.90
10889;DHT22;5497;51.388;6.780;2023-03-30T09:30:40;16.90;99.90
10889;DHT22;5497;51.388;6.780;2023-03-30T09:33:12;16.70;99.90
10889;DHT22;5497;51.388;6.780;2023-03-30T09:35:42;16.60;99.90
10889;DHT22;5497;51.388;6.780;2023-03-30T09:38:10;16.50;99.90
10889;DHT22;5497;51.388;6.780;2023-03-30T09:40:42;16.70;99.90
10889;DHT22;5497;51.388;6.780;2023-03-30T09:43:13;17.00;99.90
10889;DHT22;5497;51.388;6.780;2023-03-30T09:45:40;17.20;99.90
10889;DHT22;5497;51.388;6.780;2023-03-30T09:48:08;17.30;99.90
10889;DHT22;5497;51.388;6.780;2023-03-30T09:50:36;17.40;99.90
10889;DHT22;5497;51.388;6.780;2023-03-30T09:53:16;17.40;99.90
10889;DHT22;5497;51.388;6.780;2023-03-30T09:55:53;17.10;99.90
10889;DHT22;5497;51.388;6.780;2023-03-30T09:58:26;16.70;99.90
10889;DHT22;5497;51.388;6.780;2023-03-30T10:01:02;16.40;99.90
10889;DHT22;5497;51.388;6.780;2023-03-30T10:03:29;16.10;99.90
10889;DHT22;5497;51.388;6.780;2023-03-30T10:06:01;16.00;99.90
10889;DHT22;5497;51.388;6.780;2023-03-30T10:08:30;15.90;99.90
10889;DHT22;5497;51.388;6.780;2023-03-30T10:10:57;15.90;99.90
10889;DHT22;5497;51.388;6.780;2023-03-30T10:13:26;15.90;99.90
10889;DHT22;5497;51.388;6.780;2023-03-30T10:15:54;16.00;99.90
10889;DHT22;5497;51.388;6.780;2023-03-30T10:18:21;16.10;99.90
10889;DHT22;5497;51.388;6.780;2023-03-30T10:21:03;16.30;99.90
10889;DHT22;5497;51.388;6.780;2023-03-30T10:24:03;16.40;99.90
10889;DHT22;5497;51.388;6.780;2023-03-30T10:26:34;16.50;99.90
10889;DHT22;5497;51.388;6.780;2023-03-30T10:29:01;16.30;99.90
10889;DHT22;5497;51.388;6.780;2023-03-30T10:31:30;17.00;99.90
10889;DHT22;5497;51.388;6.780;2023-03-30T10:34:00;17.10;99.90
10889;DHT22;5497;51.388;6.780;2023-03-30T10:36:28;17.20;99.90
10889;DHT22;5497;51.388;6.780;2023-03-30T10:38:56;17.30;99.90
10889;DHT22;5497;51.388;6.780;2023-03-30T10:41:30;17.50;99.90
10889;DHT22;5497;51.388;6.780;2023-03-30T10:44:03;17.60;99.90
10889;DHT22;5497;51.388;6.780;2023-03-30T10:46:30;17.90;99.90
10889;DHT22;5497;51.388;6.780;2023-03-30T10:49:00;18.30;99.90
10889;DHT22;5497;51.388;6.780;2023-03-30T10:51:31;18.70;99.90
10889;DHT22;5497;51.388;6.780;2023-03-30T10:54:02;19.00;99.90
10889;DHT22;5497;51.388;6.780;2023-03-30T10:56:33;19.00;99.90
10889;DHT22;5497;51.388;6.780;2023-03-30T11:01:48;19.00;99.90
10889;DHT22;5497;51.388;6.780;2023-03-30T11:04:20;18.90;99.90
10889;DHT22;5497;51.388;6.780;2023-03-30T11:06:47;18.90;99.90
10889;DHT22;5497;51.388;6.780;2023-03-30T11:09:16;18.80;99.90
10889;DHT22;5497;51.388;6.780;2023-03-30T11:11:46;18.70;99.90
10889;DHT22;5497;51.388;6.780;2023-03-30T11:14:15;18.90;99.90
10889;DHT22;5497;51.388;6.780;2023-03-30T11:16:46;19.30;99.90
10889;DHT22;5497;51.388;6.780;2023-03-30T11:19:15;19.60;99.90
10889;DHT22;5497;51.388;6.780;2023-03-30T11:21:45;19.90;99.90
10889;DHT22;5497;51.388;6.780;2023-03-30T11:24:16;19.70;99.90
10889;DHT22;5497;51.388;6.780;2023-03-30T11:26:46;19.60;99.90
10889;DHT22;5497;51.388;6.780;2023-03-30T11:29:20;19.50;99.90
10889;DHT22;5497;51.388;6.780;2023-03-30T11:31:52;19.40;99.90
10889;DHT22;5497;51.388;6.780;2023-03-30T11:34:25;19.30;99.90
10889;DHT22;5497;51.388;6.780;2023-03-30T11:36:55;19.00;99.90
10889;DHT22;5497;51.388;6.780;2023-03-30T11:39:24;18.80;99.90
10889;DHT22;5497;51.388;6.780;2023-03-30T11:41:56;18.50;99.90
10889;DHT22;5497;51.388;6.780;2023-03-30T11:44:26;18.30;99.90
10889;DHT22;5497;51.388;6.780;2023-03-30T11:46:54;18.40;99.90
10889;DHT22;5497;51.388;6.780;2023-03-30T11:49:37;18.80;99.90
10889;DHT22;5497;51.388;6.780;2023-03-30T11:52:21;19.40;99.90
10889;DHT22;5497;51.388;6.780;2023-03-30T11:54:59;19.90;99.90
10889;DHT22;5497;51.388;6.780;2023-03-30T11:57:35;19.90;99.90
10889;DHT22;5497;51.388;6.780;2023-03-30T12:00:10;20.00;99.90
10889;DHT22;5497;51.388;6.780;2023-03-30T12:02:43;19.90;99.90
10889;DHT22;5497;51.388;6.780;2023-03-30T12:05:15;19.70;99.90
10889;DHT22;5497;51.388;6.780;2023-03-30T12:07:45;19.40;99.90
10889;DHT22;5497;51.388;6.780;2023-03-30T12:10:20;19.30;99.90
10889;DHT22;5497;51.388;6.780;2023-03-30T12:13:12;19.20;99.90
10889;DHT22;5497;51.388;6.780;2023-03-30T12:15:52;19.00;99.90
10889;DHT22;5497;51.388;6.780;2023-03-30T12:18:24;19.00;99.90
10889;DHT22;5497;51.388;6.780;2023-03-30T12:21:00;18.70;99.90
10889;DHT22;5497;51.388;6.780;2023-03-30T12:23:32;18.40;99.90
10889;DHT22;5497;51.388;6.780;2023-03-30T12:28:54;17.90;99.90
10889;DHT22;5497;51.388;6.780;2023-03-30T12:31:23;17.70;99.90
10889;DHT22;5497;51.388;6.780;2023-03-30T12:34:09;17.50;99.90
10889;DHT22;5497;51.388;6.780;2023-03-30T12:36:37;17.40;99.90
10889;DHT22;5497;51.388;6.780;2023-03-30T12:39:06;17.20;99.90
10889;DHT22;5497;51.388;6.780;2023-03-30T12:41:38;17.00;99.90
10889;DHT22;5497;51.388;6.780;2023-03-30T12:44:16;16.70;99.90
10889;DHT22;5497;51.388;6.780;2023-03-30T12:46:48;16.60;99.90
10889;DHT22;5497;51.388;6.780;2023-03-30T12:49:20;16.30;99.90
10889;DHT22;5497;51.388;6.780;2023-03-30T12:51:56;16.00;99.90
10889;DHT22;5497;51.388;6.780;2023-03-30T12:54:38;15.60;99.90
10889;DHT22;5497;51.388;6.780;2023-03-30T12:57:13;15.30;99.90
10889;DHT22;5497;51.388;6.780;2023-03-30T12:59:57;15.10;99.90
10889;DHT22;5497;51.388;6.780;2023-03-30T13:02:42;14.60;99.90
10889;DHT22;5497;51.388;6.780;2023-03-30T13:05:16;14.20;99.90
10889;DHT22;5497;51.388;6.780;2023-03-30T13:07:43;14.10;99.90
10889;DHT22;5497;51.388;6.780;2023-03-30T13:12:52;15.20;99.90
10889;DHT22;5497;51.388;6.780;2023-03-30T13:15:38;15.80;99.90
10889;DHT22;5497;51.388;6.780;2023-03-30T13:21:02;16.50;99.90
10889;DHT22;5497;51.388;6.780;2023-03-30T13:23:31;16.70;99.90
10889;DHT22;5497;51.388;6.780;2023-03-30T13:26:02;17.00;99.90
10889;DHT22;5497;51.388;6.780;2023-03-30T13:28:34;17.30;99.90
10889;DHT22;5497;51.388;6.780;2023-03-30T13:31:05;17.70;99.90
10889;DHT22;5497;51.388;6.780;2023-03-30T13:33:34;18.00;99.90
10889;DHT22;5497;51.388;6.780;2023-03-30T13:36:03;18.20;99.90
10889;DHT22;5497;51.388;6.780;2023-03-30T13:38:48;18.40;99.90
10889;DHT22;5497;51.388;6.780;2023-03-30T13:41:22;18.60;99.90
10889;DHT22;5497;51.388;6.780;2023-03-30T13:43:56;18.90;99.90
10889;DHT22;5497;51.388;6.780;2023-03-30T13:46:29;19.00;99.90
10889;DHT22;5497;51.388;6.780;2023-03-30T13:49:01;19.20;99.90
10889;DHT22;5497;51.388;6.780;2023-03-30T13:51:30;19.10;99.90
10889;DHT22;5497;51.388;6.780;2023-03-30T13:53:58;19.20;99.90
10889;DHT22;5497;51.388;6.780;2023-03-30T13:56:26;19.40;99.90
10889;DHT22;5497;51.388;6.780;2023-03-30T13:58:56;19.50;99.90
10889;DHT22;5497;51.388;6.780;2023-03-30T14:04:10;19.30;99.90
10889;DHT22;5497;51.388;6.780;2023-03-30T14:06:39;19.10;99.90
10889;DHT22;5497;51.388;6.780;2023-03-30T14:09:09;19.10;99.90
10889;DHT22;5497;51.388;6.780;2023-03-30T14:11:37;19.40;99.90
10889;DHT22;5497;51.388;6.780;2023-03-30T14:14:04;19.10;99.90
10889;DHT22;5497;51.388;6.780;2023-03-30T14:16:32;19.00;99.90
10889;DHT22;5497;51.388;6.780;2023-03-30T14:19:07;19.00;99.90
10889;DHT22;5497;51.388;6.780;2023-03-30T14:21:36;19.10;99.90
10889;DHT22;5497;51.388;6.780;2023-03-30T14:24:03;19.20;99.90
10889;DHT22;5497;51.388;6.780;2023-03-30T14:26:30;19.50;99.90
10889;DHT22;5497;51.388;6.780;2023-03-30T14:28:57;19.60;99.90
10889;DHT22;5497;51.388;6.780;2023-03-30T14:31:27;19.30;99.90
10889;DHT22;5497;51.388;6.780;2023-03-30T14:33:53;19.10;99.90
10889;DHT22;5497;51.388;6.780;2023-03-30T14:36:20;18.80;99.90
10889;DHT22;5497;51.388;6.780;2023-03-30T14:38:49;18.40;99.90
10889;DHT22;5497;51.388;6.780;2023-03-30T14:41:17;18.10;99.90
10889;DHT22;5497;51.388;6.780;2023-03-30T14:43:50;17.90;99.90
10889;DHT22;5497;51.388;6.780;2023-03-30T14:46:17;17.70;99.90
10889;DHT22;5497;51.388;6.780;2023-03-30T14:48:44;17.60;99.90
10889;DHT22;5497;51.388;6.780;2023-03-30T14:51:20;17.50;99.90
10889;DHT22;5497;51.388;6.780;2023-03-30T14:53:49;17.40;99.90
10889;DHT22;5497;51.388;6.780;2023-03-30T14:56:16;17.50;99.90
10889;DHT22;5497;51.388;6.780;2023-03-30T14:58:43;17.70;99.90
10889;DHT22;5497;51.388;6.780;2023-03-30T15:01:13;18.00;99.90
10889;DHT22;5497;51.388;6.780;2023-03-30T15:03:41;18.30;99.90
10889;DHT22;5497;51.388;6.780;2023-03-30T15:06:10;18.40;99.90
10889;DHT22;5497;51.388;6.780;2023-03-30T15:08:39;18.40;99.90
10889;DHT22;5497;51.388;6.780;2023-03-30T15:11:08;18.30;99.90
10889;DHT22;5497;51.388;6.780;2023-03-30T15:13:36;18.30;99.90
10889;DHT22;5497;51.388;6.780;2023-03-30T15:16:05;18.20;99.90
10889;DHT22;5497;51.388;6.780;2023-03-30T15:18:33;18.10;99.90
10889;DHT22;5497;51.388;6.780;2023-03-30T15:21:00;18.00;99.90
10889;DHT22;5497;51.388;6.780;2023-03-30T15:23:30;17.80;99.90
10889;DHT22;5497;51.388;6.780;2023-03-30T15:25:59;17.50;99.90
10889;DHT22;5497;51.388;6.780;2023-03-30T15:28:30;17.20;99.90
10889;DHT22;5497;51.388;6.780;2023-03-30T15:30:59;16.70;99.90
10889;DHT22;5497;51.388;6.780;2023-03-30T15:33:28;16.10;99.90
10889;DHT22;5497;51.388;6.780;2023-03-30T15:36:00;15.70;99.90
10889;DHT22;5497;51.388;6.780;2023-03-30T15:38:29;15.60;99.90
10889;DHT22;5497;51.388;6.780;2023-03-30T15:40:56;15.90;99.90
10889;DHT22;5497;51.388;6.780;2023-03-30T15:43:23;16.10;99.90
10889;DHT22;5497;51.388;6.780;2023-03-30T15:45:53;16.20;99.90
10889;DHT22;5497;51.388;6.780;2023-03-30T15:48:21;16.20;99.90
10889;DHT22;5497;51.388;6.780;2023-03-30T15:50:50;16.20;99.90
10889;DHT22;5497;51.388;6.780;2023-03-30T15:53:18;16.20;99.90
10889;DHT22;5497;51.388;6.780;2023-03-30T15:55:47;16.30;99.90
10889;DHT22;5497;51.388;6.780;2023-03-30T15:58:16;16.40;99.90
10889;DHT22;5497;51.388;6.780;2023-03-30T16:00:44;16.40;99.90
10889;DHT22;5497;51.388;6.780;2023-03-30T16:03:13;16.40;99.90
10889;DHT22;5497;51.388;6.780;2023-03-30T16:05:44;16.20;99.90
10889;DHT22;5497;51.388;6.780;2023-03-30T16:08:11;16.20;99.90
10889;DHT22;5497;51.388;6.780;2023-03-30T16:10:37;16.20;99.90
10889;DHT22;5497;51.388;6.780;2023-03-30T16:13:04;16.20;99.90
10889;DHT22;5497;51.388;6.780;2023-03-30T16:15:31;16.30;99.90
10889;DHT22;5497;51.388;6.780;2023-03-30T16:17:58;16.40;99.90
10889;DHT22;5497;51.388;6.780;2023-03-30T16:20:27;16.50;99.90
10889;DHT22;5497;51.388;6.780;2023-03-30T16:22:54;16.50;99.90
10889;DHT22;5497;51.388;6.780;2023-03-30T16:25:21;16.70;99.90
10889;DHT22;5497;51.388;6.780;2023-03-30T16:27:48;16.70;99.90
10889;DHT22;5497;51.388;6.780;2023-03-30T16:30:16;16.70;99.90
10889;DHT22;5497;51.388;6.780;2023-03-30T16:32:44;16.60;99.90
10889;DHT22;5497;51.388;6.780;2023-03-30T16:35:10;16.40;99.90